sensor_id;sensor_type;location;lat;lon;timestamp;temperature;humidity
9414;DHT22;4746;35.664;139.738;2022-08-01T00:02:28;32.50;99.90
9414;DHT22;4746;35.664;139.738;2022-08-01T00:04:57;32.50;99.90
9414;DHT22;4746;35.664;139.738;2022-08-01T00:07:26;32.50;99.90
9414;DHT22;4746;35.664;139.738;2022-08-01T00:09:54;32.60;99.90
9414;DHT22;4746;35.664;139.738;2022-08-01T00:12:21;32.60;99.90
9414;DHT22;4746;35.664;139.738;2022-08-01T00:14:49;32.70;99.90
9414;DHT22;4746;35.664;139.738;2022-08-01T00:17:16;32.80;99.90
9414;DHT22;4746;35.664;139.738;2022-08-01T00:19:44;32.90;99.90
9414;DHT22;4746;35.664;139.738;2022-08-01T00:22:11;33.00;99.90
9414;DHT22;4746;35.664;139.738;2022-08-01T00:24:39;33.10;99.90
9414;DHT22;4746;35.664;139.738;2022-08-01T00:27:06;33.20;99.90
9414;DHT22;4746;35.664;139.738;2022-08-01T00:29:34;33.20;99.90
9414;DHT22;4746;35.664;139.738;2022-08-01T00:32:01;33.30;99.90
9414;DHT22;4746;35.664;139.738;2022-08-01T00:34:29;33.30;99.90
9414;DHT22;4746;35.664;139.738;2022-08-01T00:36:57;33.30;99.90
9414;DHT22;4746;35.664;139.738;2022-08-01T00:39:24;33.30;99.90
9414;DHT22;4746;35.664;139.738;2022-08-01T00:41:52;33.40;99.90
9414;DHT22;4746;35.664;139.738;2022-08-01T00:44:19;33.40;99.90
9414;DHT22;4746;35.664;139.738;2022-08-01T00:46:47;33.40;99.90
9414;DHT22;4746;35.664;139.738;2022-08-01T00:49:14;33.40;99.90
9414;DHT22;4746;35.664;139.738;2022-08-01T00:51:42;33.50;99.90
9414;DHT22;4746;35.664;139.738;2022-08-01T00:54:10;33.70;99.90
9414;DHT22;4746;35.664;139.738;2022-08-01T00:56:38;33.70;99.90
9414;DHT22;4746;35.664;139.738;2022-08-01T00:59:05;33.80;99.90
9414;DHT22;4746;35.664;139.738;2022-08-01T01:01:34;33.80;99.90
9414;DHT22;4746;35.664;139.738;2022-08-01T01:04:01;33.80;99.90
9414;DHT22;4746;35.664;139.738;2022-08-01T01:15:21;34.20;99.90
9414;DHT22;4746;35.664;139.738;2022-08-01T01:18:03;34.20;99.90
9414;DHT22;4746;35.664;139.738;2022-08-01T01:20:44;34.30;99.90
9414;DHT22;4746;35.664;139.738;2022-08-01T01:23:24;34.40;99.90
9414;DHT22;4746;35.664;139.738;2022-08-01T01:29:04;34.50;99.90
9414;DHT22;4746;35.664;139.738;2022-08-01T01:32:07;34.60;99.90
9414;DHT22;4746;35.664;139.738;2022-08-01T01:34:46;34.60;99.90
9414;DHT22;4746;35.664;139.738;2022-08-01T01:37:20;34.70;99.90
9414;DHT22;4746;35.664;139.738;2022-08-01T01:39:51;34.70;99.90
9414;DHT22;4746;35.664;139.738;2022-08-01T01:42:21;34.80;99.90
9414;DHT22;4746;35.664;139.738;2022-08-01T01:44:52;34.80;99.90
9414;DHT22;4746;35.664;139.738;2022-08-01T01:47:23;34.90;99.90
9414;DHT22;4746;35.664;139.738;2022-08-01T01:49:54;34.90;99.90
9414;DHT22;4746;35.664;139.738;2022-08-01T01:52:24;34.90;99.90
9414;DHT22;4746;35.664;139.738;2022-08-01T01:54:53;35.00;99.90
9414;DHT22;4746;35.664;139.738;2022-08-01T01:57:23;35.00;99.90
9414;DHT22;4746;35.664;139.738;2022-08-01T01:59:53;35.00;99.90
9414;DHT22;4746;35.664;139.738;2022-08-01T02:02:23;35.00;99.90
9414;DHT22;4746;35.664;139.738;2022-08-01T02:04:52;35.10;99.90
9414;DHT22;4746;35.664;139.738;2022-08-01T02:07:24;35.20;99.90
9414;DHT22;4746;35.664;139.738;2022-08-01T02:09:54;35.30;99.90
9414;DHT22;4746;35.664;139.738;2022-08-01T02:12:25;35.40;99.90
9414;DHT22;4746;35.664;139.738;2022-08-01T02:14:54;35.40;99.90
9414;DHT22;4746;35.664;139.738;2022-08-01T02:17:23;35.40;99.90
9414;DHT22;4746;35.664;139.738;2022-08-01T02:19:53;35.60;99.90
9414;DHT22;4746;35.664;139.738;2022-08-01T02:22:37;35.60;99.90
9414;DHT22;4746;35.664;139.738;2022-08-01T02:28:29;35.60;99.90
9414;DHT22;4746;35.664;139.738;2022-08-01T02:31:06;35.70;99.90
9414;DHT22;4746;35.664;139.738;2022-08-01T02:33:41;35.60;99.90
9414;DHT22;4746;35.664;139.738;2022-08-01T02:36:12;35.50;99.90
9414;DHT22;4746;35.664;139.738;2022-08-01T02:38:43;35.40;99.90
9414;DHT22;4746;35.664;139.738;2022-08-01T02:41:20;35.30;99.90
9414;DHT22;4746;35.664;139.738;2022-08-01T02:43:53;35.30;99.90
9414;DHT22;4746;35.664;139.738;2022-08-01T02:46:41;35.30;99.90
9414;DHT22;4746;35.664;139.738;2022-08-01T02:49:15;35.40;99.90
9414;DHT22;4746;35.664;139.738;2022-08-01T02:51:47;35.40;99.90
9414;DHT22;4746;35.664;139.738;2022-08-01T02:54:17;35.40;99.90
9414;DHT22;4746;35.664;139.738;2022-08-01T02:56:48;35.50;99.90
9414;DHT22;4746;35.664;139.738;2022-08-01T02:59:19;35.50;99.90
9414;DHT22;4746;35.664;139.738;2022-08-01T03:01:54;35.60;99.90
9414;DHT22;4746;35.664;139.738;2022-08-01T03:04:24;35.70;99.90
9414;DHT22;4746;35.664;139.738;2022-08-01T03:06:55;35.70;99.90
9414;DHT22;4746;35.664;139.738;2022-08-01T03:09:26;35.80;99.90
9414;DHT22;4746;35.664;139.738;2022-08-01T03:11:57;35.80;99.90
9414;DHT22;4746;35.664;139.738;2022-08-01T03:14:28;35.70;99.90
9414;DHT22;4746;35.664;139.738;2022-08-01T03:17:01;35.80;99.90
9414;DHT22;4746;35.664;139.738;2022-08-01T03:19:32;35.80;99.90
9414;DHT22;4746;35.664;139.738;2022-08-01T03:22:06;35.90;99.90
9414;DHT22;4746;35.664;139.738;2022-08-01T03:24:40;35.90;99.90
9414;DHT22;4746;35.664;139.738;2022-08-01T03:27:09;35.90;99.90
9414;DHT22;4746;35.664;139.738;2022-08-01T03:29:39;35.80;99.90
9414;DHT22;4746;35.664;139.738;2022-08-01T03:32:10;35.80;99.90
9414;DHT22;4746;35.664;139.738;2022-08-01T03:34:39;35.70;99.90
9414;DHT22;4746;35.664;139.738;2022-08-01T03:37:12;35.80;99.90
9414;DHT22;4746;35.664;139.738;2022-08-01T03:40:35;35.90;99.90
9414;DHT22;4746;35.664;139.738;2022-08-01T03:43:15;36.00;99.90
9414;DHT22;4746;35.664;139.738;2022-08-01T03:46:10;36.00;99.90
9414;DHT22;4746;35.664;139.738;2022-08-01T03:48:47;36.10;99.90
9414;DHT22;4746;35.664;139.738;2022-08-01T03:51:17;36.30;99.90
9414;DHT22;4746;35.664;139.738;2022-08-01T03:53:47;36.40;99.90
9414;DHT22;4746;35.664;139.738;2022-08-01T03:56:19;36.60;99.90
9414;DHT22;4746;35.664;139.738;2022-08-01T03:58:49;36.80;99.90
9414;DHT22;4746;35.664;139.738;2022-08-01T04:01:18;36.80;99.90
9414;DHT22;4746;35.664;139.738;2022-08-01T04:03:46;36.90;99.90
9414;DHT22;4746;35.664;139.738;2022-08-01T04:06:13;37.00;99.90
9414;DHT22;4746;35.664;139.738;2022-08-01T04:08:41;37.20;99.90
9414;DHT22;4746;35.664;139.738;2022-08-01T04:11:09;37.50;99.90
9414;DHT22;4746;35.664;139.738;2022-08-01T04:13:38;37.50;99.90
9414;DHT22;4746;35.664;139.738;2022-08-01T04:16:05;37.60;99.90
9414;DHT22;4746;35.664;139.738;2022-08-01T04:18:34;37.70;99.90
9414;DHT22;4746;35.664;139.738;2022-08-01T04:21:02;37.90;99.90
9414;DHT22;4746;35.664;139.738;2022-08-01T04:23:31;37.90;99.90
9414;DHT22;4746;35.664;139.738;2022-08-01T04:26:02;38.10;99.90
9414;DHT22;4746;35.664;139.738;2022-08-01T04:28:32;38.10;99.90
9414;DHT22;4746;35.664;139.738;2022-08-01T04:31:04;38.20;99.90
9414;DHT22;4746;35.664;139.738;2022-08-01T04:33:42;38.20;99.90
9414;DHT22;4746;35.664;139.738;2022-08-01T04:36:14;38.20;99.90
9414;DHT22;4746;35.664;139.738;2022-08-01T04:38:48;38.20;99.90
9414;DHT22;4746;35.664;139.738;2022-08-01T04:41:18;38.30;99.90
9414;DHT22;4746;35.664;139.738;2022-08-01T04:43:46;38.40;99.90
9414;DHT22;4746;35.664;139.738;2022-08-01T04:46:14;38.50;99.90
9414;DHT22;4746;35.664;139.738;2022-08-01T04:48:44;38.70;99.90
9414;DHT22;4746;35.664;139.738;2022-08-01T04:51:14;38.80;99.90
9414;DHT22;4746;35.664;139.738;2022-08-01T04:53:43;39.00;99.90
9414;DHT22;4746;35.664;139.738;2022-08-01T04:56:14;39.30;99.90
9414;DHT22;4746;35.664;139.738;2022-08-01T04:58:43;39.50;99.90
9414;DHT22;4746;35.664;139.738;2022-08-01T05:01:11;39.50;99.90
9414;DHT22;4746;35.664;139.738;2022-08-01T05:03:39;39.70;99.90
9414;DHT22;4746;35.664;139.738;2022-08-01T05:06:07;39.80;99.90
9414;DHT22;4746;35.664;139.738;2022-08-01T05:08:34;39.70;99.90
9414;DHT22;4746;35.664;139.738;2022-08-01T05:11:02;39.70;99.90
9414;DHT22;4746;35.664;139.738;2022-08-01T05:13:30;39.80;99.90
9414;DHT22;4746;35.664;139.738;2022-08-01T05:15:57;39.90;99.90
9414;DHT22;4746;35.664;139.738;2022-08-01T05:18:25;40.10;99.90
9414;DHT22;4746;35.664;139.738;2022-08-01T05:20:53;40.10;99.90
9414;DHT22;4746;35.664;139.738;2022-08-01T05:23:20;40.20;99.90
9414;DHT22;4746;35.664;139.738;2022-08-01T05:25:48;40.20;99.90
9414;DHT22;4746;35.664;139.738;2022-08-01T05:28:16;40.40;99.90
9414;DHT22;4746;35.664;139.738;2022-08-01T05:30:43;40.70;99.90
9414;DHT22;4746;35.664;139.738;2022-08-01T05:33:11;40.80;99.90
9414;DHT22;4746;35.664;139.738;2022-08-01T05:35:38;41.00;99.90
9414;DHT22;4746;35.664;139.738;2022-08-01T05:38:06;41.20;99.90
9414;DHT22;4746;35.664;139.738;2022-08-01T05:40:33;41.30;99.90
9414;DHT22;4746;35.664;139.738;2022-08-01T05:43:02;41.60;99.90
9414;DHT22;4746;35.664;139.738;2022-08-01T05:45:30;41.60;99.90
9414;DHT22;4746;35.664;139.738;2022-08-01T05:47:57;41.70;99.90
9414;DHT22;4746;35.664;139.738;2022-08-01T05:50:25;41.80;99.90
9414;DHT22;4746;35.664;139.738;2022-08-01T05:52:52;42.00;99.90
9414;DHT22;4746;35.664;139.738;2022-08-01T05:55:20;42.30;99.90
9414;DHT22;4746;35.664;139.738;2022-08-01T05:57:47;42.60;99.90
9414;DHT22;4746;35.664;139.738;2022-08-01T06:00:15;42.70;99.90
9414;DHT22;4746;35.664;139.738;2022-08-01T06:02:43;43.00;99.90
9414;DHT22;4746;35.664;139.738;2022-08-01T06:05:10;43.30;99.90
9414;DHT22;4746;35.664;139.738;2022-08-01T06:07:38;43.70;99.90
9414;DHT22;4746;35.664;139.738;2022-08-01T06:10:06;43.70;99.90
9414;DHT22;4746;35.664;139.738;2022-08-01T06:12:35;43.90;99.90
9414;DHT22;4746;35.664;139.738;2022-08-01T06:15:04;44.00;99.90
9414;DHT22;4746;35.664;139.738;2022-08-01T06:17:33;44.00;99.90
9414;DHT22;4746;35.664;139.738;2022-08-01T06:20:00;44.10;99.90
9414;DHT22;4746;35.664;139.738;2022-08-01T06:22:29;44.20;99.90
9414;DHT22;4746;35.664;139.738;2022-08-01T06:24:56;44.30;99.90
9414;DHT22;4746;35.664;139.738;2022-08-01T06:27:24;44.20;99.90
9414;DHT22;4746;35.664;139.738;2022-08-01T06:29:52;44.10;99.90
9414;DHT22;4746;35.664;139.738;2022-08-01T06:32:23;44.30;99.90
9414;DHT22;4746;35.664;139.738;2022-08-01T06:34:51;44.80;99.90
9414;DHT22;4746;35.664;139.738;2022-08-01T06:37:19;45.10;99.90
9414;DHT22;4746;35.664;139.738;2022-08-01T06:39:47;45.10;99.90
9414;DHT22;4746;35.664;139.738;2022-08-01T06:42:15;44.90;99.90
9414;DHT22;4746;35.664;139.738;2022-08-01T06:44:43;44.70;99.90
9414;DHT22;4746;35.664;139.738;2022-08-01T06:47:11;44.60;99.90
9414;DHT22;4746;35.664;139.738;2022-08-01T06:49:39;44.80;99.90
9414;DHT22;4746;35.664;139.738;2022-08-01T06:52:06;45.40;99.90
9414;DHT22;4746;35.664;139.738;2022-08-01T06:54:36;46.10;99.90
9414;DHT22;4746;35.664;139.738;2022-08-01T06:57:06;46.40;99.90
9414;DHT22;4746;35.664;139.738;2022-08-01T06:59:33;47.00;99.90
9414;DHT22;4746;35.664;139.738;2022-08-01T07:02:01;47.20;99.90
9414;DHT22;4746;35.664;139.738;2022-08-01T07:04:29;47.30;99.90
9414;DHT22;4746;35.664;139.738;2022-08-01T07:06:57;47.60;99.90
9414;DHT22;4746;35.664;139.738;2022-08-01T07:09:25;47.60;99.90
9414;DHT22;4746;35.664;139.738;2022-08-01T07:12:11;47.80;99.90
9414;DHT22;4746;35.664;139.738;2022-08-01T07:14:38;47.50;99.90
9414;DHT22;4746;35.664;139.738;2022-08-01T07:17:06;47.20;99.90
9414;DHT22;4746;35.664;139.738;2022-08-01T07:19:33;47.20;99.90
9414;DHT22;4746;35.664;139.738;2022-08-01T07:22:01;47.50;99.90
9414;DHT22;4746;35.664;139.738;2022-08-01T07:24:28;47.80;99.90
9414;DHT22;4746;35.664;139.738;2022-08-01T07:26:56;48.00;99.90
9414;DHT22;4746;35.664;139.738;2022-08-01T07:29:27;48.40;99.50
9414;DHT22;4746;35.664;139.738;2022-08-01T07:31:56;48.60;98.50
9414;DHT22;4746;35.664;139.738;2022-08-01T07:34:25;48.90;98.50
9414;DHT22;4746;35.664;139.738;2022-08-01T07:36:53;49.10;97.70
9414;DHT22;4746;35.664;139.738;2022-08-01T07:39:20;49.10;96.90
9414;DHT22;4746;35.664;139.738;2022-08-01T07:41:48;49.10;96.50
9414;DHT22;4746;35.664;139.738;2022-08-01T07:44:16;49.10;96.30
9414;DHT22;4746;35.664;139.738;2022-08-01T07:46:43;48.70;95.90
9414;DHT22;4746;35.664;139.738;2022-08-01T07:49:10;48.80;96.60
9414;DHT22;4746;35.664;139.738;2022-08-01T07:51:38;48.90;96.10
9414;DHT22;4746;35.664;139.738;2022-08-01T07:54:06;49.00;96.00
9414;DHT22;4746;35.664;139.738;2022-08-01T07:56:34;49.20;95.20
9414;DHT22;4746;35.664;139.738;2022-08-01T07:59:01;49.30;94.50
9414;DHT22;4746;35.664;139.738;2022-08-01T08:01:29;49.50;94.10
9414;DHT22;4746;35.664;139.738;2022-08-01T08:03:56;49.60;93.40
9414;DHT22;4746;35.664;139.738;2022-08-01T08:06:24;49.80;93.00
9414;DHT22;4746;35.664;139.738;2022-08-01T08:08:51;50.00;92.50
9414;DHT22;4746;35.664;139.738;2022-08-01T08:11:19;50.20;92.60
9414;DHT22;4746;35.664;139.738;2022-08-01T08:13:47;50.00;91.80
9414;DHT22;4746;35.664;139.738;2022-08-01T08:16:14;49.90;91.50
9414;DHT22;4746;35.664;139.738;2022-08-01T08:18:42;49.90;90.60
9414;DHT22;4746;35.664;139.738;2022-08-01T08:21:10;49.70;90.70
9414;DHT22;4746;35.664;139.738;2022-08-01T08:23:37;49.40;90.80
9414;DHT22;4746;35.664;139.738;2022-08-01T08:26:23;49.10;90.70
9414;DHT22;4746;35.664;139.738;2022-08-01T08:28:51;48.30;90.60
9414;DHT22;4746;35.664;139.738;2022-08-01T08:31:18;47.30;90.80
9414;DHT22;4746;35.664;139.738;2022-08-01T08:33:46;46.50;90.90
9414;DHT22;4746;35.664;139.738;2022-08-01T08:36:14;45.50;93.80
9414;DHT22;4746;35.664;139.738;2022-08-01T08:38:41;44.70;96.00
9414;DHT22;4746;35.664;139.738;2022-08-01T08:41:10;44.10;98.50
9414;DHT22;4746;35.664;139.738;2022-08-01T08:43:38;43.30;99.90
9414;DHT22;4746;35.664;139.738;2022-08-01T08:46:06;42.50;99.90
9414;DHT22;4746;35.664;139.738;2022-08-01T08:48:35;41.80;99.90
9414;DHT22;4746;35.664;139.738;2022-08-01T08:51:06;41.50;99.90
9414;DHT22;4746;35.664;139.738;2022-08-01T08:53:40;41.10;99.90
9414;DHT22;4746;35.664;139.738;2022-08-01T08:56:13;40.40;99.90
9414;DHT22;4746;35.664;139.738;2022-08-01T08:58:43;39.90;99.90
9414;DHT22;4746;35.664;139.738;2022-08-01T09:01:11;39.40;99.90
9414;DHT22;4746;35.664;139.738;2022-08-01T09:03:40;39.00;99.90
9414;DHT22;4746;35.664;139.738;2022-08-01T09:06:07;38.50;99.90
9414;DHT22;4746;35.664;139.738;2022-08-01T09:08:35;38.10;99.90
9414;DHT22;4746;35.664;139.738;2022-08-01T09:11:04;37.80;99.90
9414;DHT22;4746;35.664;139.738;2022-08-01T09:13:31;37.50;99.90
9414;DHT22;4746;35.664;139.738;2022-08-01T09:15:59;37.10;99.90
9414;DHT22;4746;35.664;139.738;2022-08-01T09:21:10;36.70;99.90
9414;DHT22;4746;35.664;139.738;2022-08-01T09:26:13;36.30;99.90
9414;DHT22;4746;35.664;139.738;2022-08-01T09:28:44;35.90;99.90
9414;DHT22;4746;35.664;139.738;2022-08-01T09:31:15;35.70;99.90
9414;DHT22;4746;35.664;139.738;2022-08-01T09:33:55;35.60;99.90
9414;DHT22;4746;35.664;139.738;2022-08-01T09:36:27;35.50;99.90
9414;DHT22;4746;35.664;139.738;2022-08-01T09:39:13;35.40;99.90
9414;DHT22;4746;35.664;139.738;2022-08-01T09:41:41;35.30;99.90
9414;DHT22;4746;35.664;139.738;2022-08-01T09:44:09;35.20;99.90
9414;DHT22;4746;35.664;139.738;2022-08-01T09:46:46;35.00;99.90
9414;DHT22;4746;35.664;139.738;2022-08-01T09:49:30;34.90;99.90
9414;DHT22;4746;35.664;139.738;2022-08-01T09:52:15;34.70;99.90
9414;DHT22;4746;35.664;139.738;2022-08-01T09:54:59;34.60;99.90
9414;DHT22;4746;35.664;139.738;2022-08-01T09:57:32;34.60;99.90
9414;DHT22;4746;35.664;139.738;2022-08-01T10:00:00;34.50;99.90
9414;DHT22;4746;35.664;139.738;2022-08-01T10:02:39;34.40;99.90
9414;DHT22;4746;35.664;139.738;2022-08-01T10:05:10;34.30;99.90
9414;DHT22;4746;35.664;139.738;2022-08-01T10:07:57;34.20;99.90
9414;DHT22;4746;35.664;139.738;2022-08-01T10:10:27;34.00;99.90
9414;DHT22;4746;35.664;139.738;2022-08-01T10:12:57;33.80;99.90
9414;DHT22;4746;35.664;139.738;2022-08-01T10:15:26;33.60;99.90
9414;DHT22;4746;35.664;139.738;2022-08-01T10:17:56;33.50;99.90
9414;DHT22;4746;35.664;139.738;2022-08-01T10:20:30;33.40;99.90
9414;DHT22;4746;35.664;139.738;2022-08-01T10:23:00;33.40;99.90
9414;DHT22;4746;35.664;139.738;2022-08-01T10:25:35;33.40;99.90
9414;DHT22;4746;35.664;139.738;2022-08-01T10:28:13;33.30;99.90
9414;DHT22;4746;35.664;139.738;2022-08-01T10:30:43;33.30;99.90
9414;DHT22;4746;35.664;139.738;2022-08-01T10:33:13;33.20;99.90
9414;DHT22;4746;35.664;139.738;2022-08-01T10:35:42;33.10;99.90
9414;DHT22;4746;35.664;139.738;2022-08-01T10:38:13;33.00;99.90
9414;DHT22;4746;35.664;139.738;2022-08-01T10:40:44;32.90;99.90
9414;DHT22;4746;35.664;139.738;2022-08-01T10:43:13;32.90;99.90
9414;DHT22;4746;35.664;139.738;2022-08-01T10:45:45;32.90;99.90
9414;DHT22;4746;35.664;139.738;2022-08-01T10:48:38;33.00;99.90
9414;DHT22;4746;35.664;139.738;2022-08-01T10:51:06;33.00;99.90
9414;DHT22;4746;35.664;139.738;2022-08-01T10:53:35;33.00;99.90
9414;DHT22;4746;35.664;139.738;2022-08-01T10:56:04;33.00;99.90
9414;DHT22;4746;35.664;139.738;2022-08-01T10:58:38;33.00;99.90
9414;DHT22;4746;35.664;139.738;2022-08-01T11:01:30;33.00;99.90
9414;DHT22;4746;35.664;139.738;2022-08-01T11:04:08;32.90;99.90
9414;DHT22;4746;35.664;139.738;2022-08-01T11:06:49;32.90;99.90
9414;DHT22;4746;35.664;139.738;2022-08-01T11:09:20;32.90;99.90
9414;DHT22;4746;35.664;139.738;2022-08-01T11:12:06;32.90;99.90
9414;DHT22;4746;35.664;139.738;2022-08-01T11:17:54;32.90;99.90
9414;DHT22;4746;35.664;139.738;2022-08-01T11:20:25;32.90;99.90
9414;DHT22;4746;35.664;139.738;2022-08-01T11:26:05;33.00;99.90
9414;DHT22;4746;35.664;139.738;2022-08-01T11:28:23;33.00;99.90
9414;DHT22;4746;35.664;139.738;2022-08-01T11:41:23;33.00;99.90
9414;DHT22;4746;35.664;139.738;2022-08-01T11:44:03;33.00;99.90
9414;DHT22;4746;35.664;139.738;2022-08-01T11:47:04;33.00;99.90
9414;DHT22;4746;35.664;139.738;2022-08-01T11:49:48;33.00;99.90
9414;DHT22;4746;35.664;139.738;2022-08-01T11:52:29;33.00;99.90
9414;DHT22;4746;35.664;139.738;2022-08-01T11:57:35;33.00;99.90
9414;DHT22;4746;35.664;139.738;2022-08-01T12:00:11;32.90;99.90
9414;DHT22;4746;35.664;139.738;2022-08-01T12:02:41;32.90;99.90
9414;DHT22;4746;35.664;139.738;2022-08-01T12:05:14;32.90;99.90
9414;DHT22;4746;35.664;139.738;2022-08-01T12:07:45;32.90;99.90
9414;DHT22;4746;35.664;139.738;2022-08-01T12:10:19;32.90;99.90
9414;DHT22;4746;35.664;139.738;2022-08-01T12:13:00;32.90;99.90
9414;DHT22;4746;35.664;139.738;2022-08-01T12:15:34;32.90;99.90
9414;DHT22;4746;35.664;139.738;2022-08-01T12:18:05;32.90;99.90
9414;DHT22;4746;35.664;139.738;2022-08-01T12:20:35;32.90;99.90
9414;DHT22;4746;35.664;139.738;2022-08-01T12:23:13;32.80;99.90
9414;DHT22;4746;35.664;139.738;2022-08-01T12:25:42;32.80;99.90
9414;DHT22;4746;35.664;139.738;2022-08-01T12:28:14;32.80;99.90
9414;DHT22;4746;35.664;139.738;2022-08-01T12:30:48;32.80;99.90
9414;DHT22;4746;35.664;139.738;2022-08-01T12:33:20;32.70;99.90
9414;DHT22;4746;35.664;139.738;2022-08-01T12:35:48;32.70;99.90
9414;DHT22;4746;35.664;139.738;2022-08-01T12:38:20;32.70;99.90
9414;DHT22;4746;35.664;139.738;2022-08-01T12:40:52;32.80;99.90
9414;DHT22;4746;35.664;139.738;2022-08-01T12:43:21;32.80;99.90
9414;DHT22;4746;35.664;139.738;2022-08-01T12:45:53;32.70;99.90
9414;DHT22;4746;35.664;139.738;2022-08-01T12:48:23;32.70;99.90
9414;DHT22;4746;35.664;139.738;2022-08-01T12:50:52;32.70;99.90
9414;DHT22;4746;35.664;139.738;2022-08-01T12:53:23;32.70;99.90
9414;DHT22;4746;35.664;139.738;2022-08-01T12:55:54;32.60;99.90
9414;DHT22;4746;35.664;139.738;2022-08-01T12:58:22;32.70;99.90
9414;DHT22;4746;35.664;139.738;2022-08-01T13:01:01;32.60;99.90
9414;DHT22;4746;35.664;139.738;2022-08-01T13:03:33;32.60;99.90
9414;DHT22;4746;35.664;139.738;2022-08-01T13:06:10;32.50;99.90
9414;DHT22;4746;35.664;139.738;2022-08-01T13:08:40;32.50;99.90
9414;DHT22;4746;35.664;139.738;2022-08-01T13:11:12;32.50;99.90
9414;DHT22;4746;35.664;139.738;2022-08-01T13:13:47;32.50;99.90
9414;DHT22;4746;35.664;139.738;2022-08-01T13:16:20;32.40;99.90
9414;DHT22;4746;35.664;139.738;2022-08-01T13:18:53;32.40;99.90
9414;DHT22;4746;35.664;139.738;2022-08-01T13:21:24;32.40;99.90
9414;DHT22;4746;35.664;139.738;2022-08-01T13:24:11;32.50;99.90
9414;DHT22;4746;35.664;139.738;2022-08-01T13:29:22;32.50;99.90
9414;DHT22;4746;35.664;139.738;2022-08-01T13:31:58;32.40;99.90
9414;DHT22;4746;35.664;139.738;2022-08-01T13:34:33;32.40;99.90
9414;DHT22;4746;35.664;139.738;2022-08-01T13:37:02;32.40;99.90
9414;DHT22;4746;35.664;139.738;2022-08-01T13:39:30;32.40;99.90
9414;DHT22;4746;35.664;139.738;2022-08-01T13:42:15;32.50;99.90
9414;DHT22;4746;35.664;139.738;2022-08-01T13:44:44;32.50;99.90
9414;DHT22;4746;35.664;139.738;2022-08-01T13:47:12;32.40;99.90
9414;DHT22;4746;35.664;139.738;2022-08-01T13:49:39;32.40;99.90
9414;DHT22;4746;35.664;139.738;2022-08-01T13:52:07;32.40;99.90
9414;DHT22;4746;35.664;139.738;2022-08-01T13:54:35;32.40;99.90
9414;DHT22;4746;35.664;139.738;2022-08-01T13:57:02;32.30;99.90
9414;DHT22;4746;35.664;139.738;2022-08-01T13:59:30;32.30;99.90
9414;DHT22;4746;35.664;139.738;2022-08-01T14:01:58;32.30;99.90
9414;DHT22;4746;35.664;139.738;2022-08-01T14:04:25;32.30;99.90
9414;DHT22;4746;35.664;139.738;2022-08-01T14:06:53;32.30;99.90
9414;DHT22;4746;35.664;139.738;2022-08-01T14:09:20;32.30;99.90
9414;DHT22;4746;35.664;139.738;2022-08-01T14:11:49;32.30;99.90
9414;DHT22;4746;35.664;139.738;2022-08-01T14:14:16;32.30;99.90
9414;DHT22;4746;35.664;139.738;2022-08-01T14:16:44;32.20;99.90
9414;DHT22;4746;35.664;139.738;2022-08-01T14:19:12;32.20;99.90
9414;DHT22;4746;35.664;139.738;2022-08-01T14:21:42;32.20;99.90
9414;DHT22;4746;35.664;139.738;2022-08-01T14:24:10;32.20;99.90
9414;DHT22;4746;35.664;139.738;2022-08-01T14:26:37;32.20;99.90
9414;DHT22;4746;35.664;139.738;2022-08-01T14:29:05;32.20;99.90
9414;DHT22;4746;35.664;139.738;2022-08-01T14:31:32;32.20;99.90
9414;DHT22;4746;35.664;139.738;2022-08-01T14:34:00;32.20;99.90
9414;DHT22;4746;35.664;139.738;2022-08-01T14:36:27;32.10;99.90
9414;DHT22;4746;35.664;139.738;2022-08-01T14:38:55;32.00;99.90
9414;DHT22;4746;35.664;139.738;2022-08-01T14:41:23;32.00;99.90
9414;DHT22;4746;35.664;139.738;2022-08-01T14:43:50;31.80;99.90
9414;DHT22;4746;35.664;139.738;2022-08-01T14:46:18;31.80;99.90
9414;DHT22;4746;35.664;139.738;2022-08-01T14:48:45;31.80;99.90
9414;DHT22;4746;35.664;139.738;2022-08-01T14:51:13;31.70;99.90
9414;DHT22;4746;35.664;139.738;2022-08-01T14:53:40;31.70;99.90
9414;DHT22;4746;35.664;139.738;2022-08-01T14:56:08;31.60;99.90
9414;DHT22;4746;35.664;139.738;2022-08-01T14:58:36;31.50;99.90
9414;DHT22;4746;35.664;139.738;2022-08-01T15:01:03;31.50;99.90
9414;DHT22;4746;35.664;139.738;2022-08-01T15:03:31;31.50;99.90
9414;DHT22;4746;35.664;139.738;2022-08-01T15:05:59;31.50;99.90
9414;DHT22;4746;35.664;139.738;2022-08-01T15:08:27;31.40;99.90
9414;DHT22;4746;35.664;139.738;2022-08-01T15:10:56;31.40;99.90
9414;DHT22;4746;35.664;139.738;2022-08-01T15:13:23;31.30;99.90
9414;DHT22;4746;35.664;139.738;2022-08-01T15:15:51;31.20;99.90
9414;DHT22;4746;35.664;139.738;2022-08-01T15:18:18;31.10;99.90
9414;DHT22;4746;35.664;139.738;2022-08-01T15:20:46;31.00;99.90
9414;DHT22;4746;35.664;139.738;2022-08-01T15:23:13;30.90;99.90
9414;DHT22;4746;35.664;139.738;2022-08-01T15:25:41;30.80;99.90
9414;DHT22;4746;35.664;139.738;2022-08-01T15:28:09;30.60;99.90
9414;DHT22;4746;35.664;139.738;2022-08-01T15:30:38;30.50;99.90
9414;DHT22;4746;35.664;139.738;2022-08-01T15:33:07;30.50;99.90
9414;DHT22;4746;35.664;139.738;2022-08-01T15:35:34;30.40;99.90
9414;DHT22;4746;35.664;139.738;2022-08-01T15:38:02;30.40;99.90
9414;DHT22;4746;35.664;139.738;2022-08-01T15:40:31;30.30;99.90
9414;DHT22;4746;35.664;139.738;2022-08-01T15:43:00;30.10;99.90
9414;DHT22;4746;35.664;139.738;2022-08-01T15:45:28;30.10;99.90
9414;DHT22;4746;35.664;139.738;2022-08-01T15:47:56;30.10;99.90
9414;DHT22;4746;35.664;139.738;2022-08-01T15:50:24;30.00;99.90
9414;DHT22;4746;35.664;139.738;2022-08-01T15:52:51;30.00;99.90
9414;DHT22;4746;35.664;139.738;2022-08-01T15:55:19;30.00;99.90
9414;DHT22;4746;35.664;139.738;2022-08-01T15:57:47;30.00;99.90
9414;DHT22;4746;35.664;139.738;2022-08-01T16:00:15;29.90;99.90
9414;DHT22;4746;35.664;139.738;2022-08-01T16:02:42;29.90;99.90
9414;DHT22;4746;35.664;139.738;2022-08-01T16:05:10;29.90;99.90
9414;DHT22;4746;35.664;139.738;2022-08-01T16:07:40;29.90;99.90
9414;DHT22;4746;35.664;139.738;2022-08-01T16:10:07;29.90;99.90
9414;DHT22;4746;35.664;139.738;2022-08-01T16:12:35;29.90;99.90
9414;DHT22;4746;35.664;139.738;2022-08-01T16:15:03;29.80;99.90
9414;DHT22;4746;35.664;139.738;2022-08-01T16:17:32;29.80;99.90
9414;DHT22;4746;35.664;139.738;2022-08-01T16:19:59;29.80;99.90
9414;DHT22;4746;35.664;139.738;2022-08-01T16:22:27;29.80;99.90
9414;DHT22;4746;35.664;139.738;2022-08-01T16:24:54;29.70;99.90
9414;DHT22;4746;35.664;139.738;2022-08-01T16:27:22;29.70;99.90
9414;DHT22;4746;35.664;139.738;2022-08-01T16:29:49;29.70;99.90
9414;DHT22;4746;35.664;139.738;2022-08-01T16:32:17;29.80;99.90
9414;DHT22;4746;35.664;139.738;2022-08-01T16:34:44;29.80;99.90